Skip Navigation LinksHome page > Weather > Current weather Skip Navigation Links

Current Weather

Indira Gandhi Intl Apt, New Delhi, India

For information only: do not use for flight planning or navigation.
Latest weather
Observation time Monday, May 30, 2016 8:00 AM IST
Local time Monday, May 30, 2016 8:26 AM IST
Flight conditions Low Instrument Meteorological Conditions
Winds
Wind direction West (260°)
Wind speed 7 mph
Visibility 0.9 mi.
Present weather light rain
Sky condition
Ceiling 8,000 ft. overcast
Cloud layer scattered clouds 3,000 ft.
Cloud layer few clouds with cumulonimbus 4,000 ft.
Cloud layer overcast 8,000 ft.
Temperature 75°F
Dewpoint 68°F
Altimeter 29.71 in.Hg
Derived measurements
Relative humidity 78%
Density altitude 2370 ft.
METAR VIDP 300230Z 26006KT 1500 R28/P2000 R29/P2000 -RA SCT030 FEW040CB OVC080 24/20 Q1006 TEMPO TS

Settings

Location code

InnerDrive.Weather 4.0.5722.1 Release CLR 4.0.30319.34209
Copyright ©2015 Inner Drive Technology. All rights reserved. Portions Copyright ©1986-2015 David Braverman.

Find weather

Site navigation


Skip Navigation Links

Place info

Page info

PayPal - The safer, easier way to pay online!

Return home.

Copyright ©2016 Inner Drive Technology. Purveyors of fine, hand-crafted computer software. Page printed 2016-05-30T02:56:30 UTC.